Terminal Aerodrome Forecast
Issued by NWS

Home | Current Version | Previous Version | Text Only | Print | Product List | Glossary On
Versions: 1 2 3 4 5 6 7 8 9 10 11 12 13 14 15 16 17 18 19 20 21
000
FTUS43 KAPX 272331
TAFPLN
TAF
KPLN 272331Z 2800/2824 31006KT P6SM VCSH OVC035
     FM280200 32003KT P6SM VCSH OVC035
     FM281000 VRB03KT 6SM -SHSN OVC030
     FM281500 19005KT P6SM OVC035
     FM281800 16005KT 2SM -SN OVC025=

USA.gov is the U.S. government's official web portal to all federal, state and local government web resources and services.